Time;durP1;ratioP1;P1;durP2;ratioP2;P2;SDS_P1;SDS_P2;PMS_P1;PMS_P2;Temp;Humidity;BMP_temperature;BMP_pressure;BME280_temperature;BME280_humidity;BME280_pressure;Samples;Min_cycle;Max_cycle;Signal;HPM_P1;HPM_P2
2022/03/04 00:23:00;;;;;;;5.75;3.17;;;21.80;55.40;;;;;;4909292;23;20232;-59
2022/03/04 00:25:31;;;;;;;5.00;3.15;;;21.80;55.40;;;;;;4969850;28;20751;-60
2022/03/04 00:28:02;;;;;;;5.85;2.88;;;21.80;55.40;;;;;;4970193;28;20222;-59
2022/03/04 00:30:32;;;;;;;6.30;2.85;;;21.90;55.40;;;;;;4969925;28;20206;-58
2022/03/04 00:33:03;;;;;;;4.68;2.70;;;21.90;55.30;;;;;;4968991;28;20230;-58
2022/03/04 00:35:34;;;;;;;5.15;3.00;;;21.90;55.30;;;;;;4969248;28;20198;-59
2022/03/04 00:38:06;;;;;;;4.47;3.15;;;22.00;55.20;;;;;;4969638;28;20194;-59
2022/03/04 00:40:37;;;;;;;5.97;3.22;;;22.00;55.20;;;;;;4970450;28;20202;-62
2022/03/04 00:43:07;;;;;;;4.88;2.92;;;22.00;55.10;;;;;;4969856;28;20716;-61
2022/03/04 00:45:38;;;;;;;4.13;2.75;;;22.10;55.10;;;;;;4970136;28;20191;-59
2022/03/04 00:48:09;;;;;;;4.90;2.63;;;22.10;55.10;;;;;;4969284;28;20205;-62
2022/03/04 00:50:39;;;;;;;4.75;2.95;;;22.10;55.00;;;;;;4969438;28;20191;-59
2022/03/04 00:53:12;;;;;;;6.18;3.00;;;22.10;55.00;;;;;;4969734;28;20693;-63
2022/03/04 00:55:43;;;;;;;4.53;2.60;;;22.10;55.00;;;;;;4970049;28;20615;-60
2022/03/04 00:58:13;;;;;;;4.68;2.63;;;22.20;55.00;;;;;;4969460;28;20202;-60
2022/03/04 01:00:44;;;;;;;6.70;2.90;;;22.20;55.00;;;;;;4968545;28;20713;-62
2022/03/04 01:03:14;;;;;;;4.45;2.80;;;22.20;55.00;;;;;;4968327;28;20218;-61
2022/03/04 01:05:45;;;;;;;3.95;2.83;;;22.20;54.90;;;;;;4969494;28;20245;-63
2022/03/04 01:08:17;;;;;;;4.97;3.13;;;22.20;54.90;;;;;;4969589;28;20630;-60
2022/03/04 01:10:48;;;;;;;3.85;2.42;;;22.30;54.80;;;;;;4969170;28;20717;-62
2022/03/04 01:13:19;;;;;;;4.05;2.78;;;22.30;54.80;;;;;;4969252;28;20320;-61
2022/03/04 01:15:50;;;;;;;4.90;2.53;;;22.30;54.70;;;;;;4969899;28;20261;-59
2022/03/04 01:18:20;;;;;;;3.83;2.55;;;22.30;54.70;;;;;;4969157;28;20194;-61
2022/03/04 01:20:51;;;;;;;3.65;2.33;;;22.40;54.70;;;;;;4969270;28;20194;-59
2022/03/04 01:23:23;;;;;;;4.78;2.45;;;22.40;54.60;;;;;;4969110;28;20222;-59
2022/03/04 01:25:56;;;;;;;4.32;2.63;;;22.40;54.60;;;;;;4968506;28;20210;-60
2022/03/04 01:28:27;;;;;;;3.42;2.55;;;22.40;54.60;;;;;;4968664;28;20202;-62
2022/03/04 01:30:57;;;;;;;3.90;2.85;;;22.50;54.70;;;;;;4969992;28;20202;-61
2022/03/04 01:33:28;;;;;;;4.93;2.50;;;22.50;54.60;;;;;;4968863;28;20554;-59
2022/03/04 01:35:59;;;;;;;4.80;2.28;;;22.50;54.60;;;;;;4969787;28;20194;-59
2022/03/04 01:38:31;;;;;;;3.80;2.55;;;22.50;54.50;;;;;;4970089;28;20650;-60
2022/03/04 01:41:02;;;;;;;5.90;3.10;;;22.50;54.50;;;;;;4969504;28;20202;-60
2022/03/04 01:43:32;;;;;;;4.05;2.65;;;22.50;54.40;;;;;;4968520;28;20225;-59
2022/03/04 01:46:14;;;;;;;5.93;2.60;;;22.60;54.50;;;;;;4969901;28;20210;-59
2022/03/04 01:48:46;;;;;;;4.38;2.70;;;22.50;54.40;;;;;;4969362;28;20198;-60
2022/03/04 01:51:16;;;;;;;4.00;2.85;;;22.60;54.50;;;;;;4968844;28;20194;-59
2022/03/04 01:53:49;;;;;;;3.70;2.40;;;22.60;54.50;;;;;;4968738;28;20276;-60
2022/03/04 01:56:20;;;;;;;3.95;2.65;;;22.60;54.50;;;;;;4968660;28;20647;-60
2022/03/04 01:58:51;;;;;;;5.00;2.72;;;22.60;54.50;;;;;;4969546;28;20230;-59
2022/03/04 02:01:21;;;;;;;4.38;2.53;;;22.60;54.50;;;;;;4967388;28;20194;-59
2022/03/04 02:03:52;;;;;;;3.40;2.30;;;22.60;54.50;;;;;;4968543;28;20194;-61
2022/03/04 02:06:22;;;;;;;5.30;2.33;;;22.60;54.50;;;;;;4968650;28;20241;-59
2022/03/04 02:08:55;;;;;;;2.88;2.40;;;22.70;54.50;;;;;;4968171;28;20257;-58
2022/03/04 02:11:26;;;;;;;3.78;2.53;;;22.70;54.50;;;;;;4968784;28;20249;-61
2022/03/04 02:13:57;;;;;;;3.67;2.50;;;22.70;54.50;;;;;;4968995;28;20226;-59
2022/03/04 02:16:34;;;;;;;6.35;2.92;;;22.70;54.50;;;;;;4969507;28;20252;-62
2022/03/04 02:19:05;;;;;;;4.60;2.90;;;22.80;54.50;;;;;;4968715;28;20249;-58
2022/03/04 02:21:36;;;;;;;3.15;2.35;;;22.80;54.40;;;;;;4969575;28;20190;-60
2022/03/04 02:24:09;;;;;;;4.53;2.58;;;22.80;54.40;;;;;;4968713;28;20273;-59
2022/03/04 02:26:43;;;;;;;5.50;2.60;;;22.80;54.40;;;;;;4969451;28;20616;-60
2022/03/04 02:29:13;;;;;;;5.40;2.63;;;22.80;54.50;;;;;;4969029;28;20195;-63
2022/03/04 02:31:44;;;;;;;5.65;2.55;;;22.90;54.60;;;;;;4968679;28;20805;-59
2022/03/04 02:34:15;;;;;;;5.30;2.90;;;22.90;54.70;;;;;;4968113;28;20615;-58
2022/03/04 02:36:46;;;;;;;5.10;2.75;;;22.90;54.70;;;;;;4969603;28;20202;-59
2022/03/04 02:39:19;;;;;;;4.28;2.40;;;22.90;54.70;;;;;;4972078;28;20272;-58
2022/03/04 02:41:50;;;;;;;6.05;2.65;;;23.00;54.80;;;;;;4972242;28;20346;-57
2022/03/04 02:44:20;;;;;;;4.55;2.42;;;22.90;54.70;;;;;;4972309;28;20206;-61
2022/03/04 02:46:51;;;;;;;3.40;2.63;;;23.00;54.80;;;;;;4972290;28;20265;-58
2022/03/04 02:49:22;;;;;;;3.42;2.30;;;23.00;54.70;;;;;;4972008;28;20202;-58
2022/03/04 02:51:53;;;;;;;2.63;2.10;;;23.00;54.60;;;;;;4971814;28;20222;-59
2022/03/04 02:54:25;;;;;;;3.97;2.47;;;23.00;54.60;;;;;;4971373;28;20632;-59
2022/03/04 02:56:56;;;;;;;5.93;2.80;;;23.10;54.60;;;;;;4971089;28;20202;-58
2022/03/04 02:59:26;;;;;;;5.60;2.55;;;23.10;54.60;;;;;;4972359;28;20206;-60
2022/03/04 03:01:57;;;;;;;4.13;2.17;;;23.10;54.50;;;;;;4972413;28;20497;-59
2022/03/04 03:04:27;;;;;;;5.40;2.60;;;23.20;54.50;;;;;;4971644;28;20258;-59
2022/03/04 03:06:59;;;;;;;5.45;2.60;;;23.20;54.40;;;;;;4971794;28;20551;-59
2022/03/04 03:09:31;;;;;;;6.75;2.58;;;23.20;54.40;;;;;;4971722;28;20643;-59
2022/03/04 03:12:02;;;;;;;6.18;2.72;;;23.30;54.40;;;;;;4972207;28;20218;-61
2022/03/04 03:14:33;;;;;;;7.95;2.85;;;23.30;54.30;;;;;;4971750;28;20269;-62
2022/03/04 03:17:03;;;;;;;4.50;2.40;;;23.30;54.30;;;;;;4972145;28;20195;-59
2022/03/04 03:19:34;;;;;;;4.95;2.55;;;23.30;54.30;;;;;;4971094;28;20398;-59
2022/03/04 03:22:05;;;;;;;5.07;2.13;;;23.40;54.30;;;;;;4970450;28;20294;-59
2022/03/04 03:24:37;;;;;;;3.67;2.47;;;23.40;54.20;;;;;;4970838;28;20249;-59
2022/03/04 03:27:08;;;;;;;4.97;2.40;;;23.40;54.20;;;;;;4971561;28;20245;-59
2022/03/04 03:29:39;;;;;;;6.40;2.80;;;23.40;54.20;;;;;;4971705;28;20268;-60
2022/03/04 03:32:11;;;;;;;5.38;2.75;;;23.50;54.30;;;;;;4970771;28;20632;-61
2022/03/04 03:34:42;;;;;;;6.03;2.35;;;23.50;54.30;;;;;;4984717;28;20316;-61
2022/03/04 03:37:15;;;;;;;6.82;2.67;;;23.50;54.30;;;;;;4992957;28;20197;-61
2022/03/04 03:39:47;;;;;;;4.20;2.28;;;23.50;54.20;;;;;;4991303;28;20193;-62
2022/03/04 03:42:18;;;;;;;4.88;2.35;;;23.60;54.20;;;;;;4982364;28;20891;-62
2022/03/04 03:44:49;;;;;;;5.60;2.38;;;23.60;54.70;;;;;;4968243;28;20194;-62
2022/03/04 03:47:20;;;;;;;5.63;2.25;;;23.60;54.10;;;;;;4970980;28;20206;-62
2022/03/04 03:49:50;;;;;;;4.18;2.30;;;23.70;54.10;;;;;;4970346;28;20191;-62
2022/03/04 03:52:21;;;;;;;4.38;2.50;;;23.70;54.10;;;;;;4971058;28;20218;-62
2022/03/04 03:54:53;;;;;;;5.57;2.30;;;23.70;54.00;;;;;;4972030;28;20569;-63
2022/03/04 03:57:24;;;;;;;5.22;2.60;;;23.70;54.00;;;;;;4972742;28;20198;-61
2022/03/04 03:59:55;;;;;;;3.75;2.40;;;23.70;53.90;;;;;;4972763;28;20198;-61
2022/03/04 04:02:26;;;;;;;3.45;1.80;;;23.80;53.90;;;;;;4972573;28;20222;-60
2022/03/04 04:04:56;;;;;;;5.00;2.45;;;23.80;53.80;;;;;;4971628;28;20194;-60
2022/03/04 04:07:27;;;;;;;4.53;2.47;;;23.80;53.80;;;;;;4972139;28;20237;-62
2022/03/04 04:09:59;;;;;;;5.07;2.15;;;23.80;53.80;;;;;;4972369;28;20202;-60
2022/03/04 04:12:30;;;;;;;5.20;2.08;;;23.90;53.80;;;;;;4972023;28;20218;-62
2022/03/04 04:15:00;;;;;;;4.18;2.20;;;23.90;53.70;;;;;;4971905;28;20276;-61
2022/03/04 04:17:31;;;;;;;5.07;2.10;;;23.90;53.60;;;;;;4971695;28;20248;-61
2022/03/04 04:20:01;;;;;;;4.43;2.47;;;24.00;53.60;;;;;;4971132;28;20199;-60
2022/03/04 04:22:33;;;;;;;4.95;2.05;;;24.00;53.50;;;;;;4971466;28;20226;-59
2022/03/04 04:25:06;;;;;;;4.20;2.10;;;24.00;53.50;;;;;;4971859;28;20205;-62
2022/03/04 04:27:36;;;;;;;3.42;2.20;;;24.00;53.40;;;;;;4972360;28;20194;-63
2022/03/04 04:30:10;;;;;;;5.43;2.00;;;24.00;53.40;;;;;;4971855;28;20245;-62
2022/03/04 04:32:43;;;;;;;5.30;2.20;;;24.00;53.30;;;;;;4971954;28;20257;-62
2022/03/04 04:35:14;;;;;;;4.75;2.28;;;24.00;53.30;;;;;;4971238;28;20277;-63
2022/03/04 04:37:44;;;;;;;4.72;2.42;;;24.00;53.30;;;;;;4977009;23;20230;-56
2022/03/04 04:40:17;;;;;;;3.67;2.28;;;24.00;53.30;;;;;;4952529;28;20202;-52
2022/03/04 04:42:48;;;;;;;3.30;1.90;;;24.00;53.30;;;;;;4963827;28;20745;-55
2022/03/04 04:45:19;;;;;;;2.83;1.80;;;24.00;53.20;;;;;;4971745;28;20253;-56
2022/03/04 04:47:49;;;;;;;4.60;1.90;;;24.00;53.20;;;;;;4971507;28;20210;-54
2022/03/04 04:50:20;;;;;;;4.75;1.80;;;24.00;53.20;;;;;;4979788;28;20201;-58
2022/03/04 04:52:51;;;;;;;5.13;2.03;;;24.00;53.20;;;;;;4990549;28;20221;-53
2022/03/04 04:55:23;;;;;;;4.38;2.35;;;24.00;53.20;;;;;;4990187;28;20225;-56
2022/03/04 04:57:54;;;;;;;5.25;2.15;;;24.00;53.10;;;;;;4990496;28;20202;-55
2022/03/04 05:00:25;;;;;;;2.72;1.83;;;24.00;53.10;;;;;;4990535;28;20259;-56
2022/03/04 05:02:55;;;;;;;4.22;2.30;;;24.00;53.10;;;;;;4990899;28;20225;-56
2022/03/04 05:05:26;;;;;;;3.30;2.00;;;24.00;53.10;;;;;;4989953;28;20198;-54
2022/03/04 05:07:56;;;;;;;4.03;2.10;;;24.00;53.10;;;;;;4990493;28;20201;-51
2022/03/04 05:10:29;;;;;;;3.47;2.47;;;24.00;53.10;;;;;;4990317;28;20252;-54
2022/03/04 05:12:59;;;;;;;4.55;2.13;;;24.00;53.10;;;;;;4990483;28;20221;-55
2022/03/04 05:15:30;;;;;;;2.97;1.70;;;24.00;53.10;;;;;;4990542;28;20233;-55
2022/03/04 05:18:00;;;;;;;3.30;2.15;;;24.00;53.10;;;;;;4983639;28;20694;-52
2022/03/04 05:20:31;;;;;;;3.90;2.20;;;24.00;53.20;;;;;;4978805;28;20201;-55
2022/03/04 05:23:02;;;;;;;3.38;2.17;;;24.00;53.10;;;;;;4989812;28;20226;-52
2022/03/04 05:25:34;;;;;;;3.25;2.00;;;24.00;53.10;;;;;;4989356;28;20238;-56
2022/03/04 05:28:05;;;;;;;3.80;1.83;;;23.90;53.10;;;;;;4988018;28;20193;-59
2022/03/04 05:30:36;;;;;;;5.72;2.08;;;23.90;53.10;;;;;;4989612;28;20263;-56
2022/03/04 05:33:06;;;;;;;8.70;2.10;;;23.90;53.10;;;;;;4989295;28;20217;-55
2022/03/04 05:35:37;;;;;;;5.80;1.92;;;23.90;53.20;;;;;;4989242;28;20248;-56
2022/03/04 06:37:45;;;;;;;4.78;1.88;;;23.50;53.60;;;;;;5721583;23;20592;-60
2022/03/04 06:40:18;;;;;;;4.07;2.22;;;23.50;53.50;;;;;;4973885;28;20198;-60
2022/03/04 06:42:49;;;;;;;4.30;2.13;;;23.50;53.50;;;;;;4985428;28;20221;-59
2022/03/04 06:45:20;;;;;;;4.22;1.77;;;23.50;53.50;;;;;;4993266;28;20198;-60
2022/03/04 06:47:51;;;;;;;3.92;2.20;;;23.50;53.60;;;;;;4993432;28;20268;-58
2022/03/04 06:50:22;;;;;;;3.42;1.83;;;23.50;53.60;;;;;;4992356;28;20217;-58
2022/03/04 06:52:54;;;;;;;3.03;1.63;;;23.50;53.60;;;;;;4992674;28;20283;-59
2022/03/04 06:55:25;;;;;;;4.22;1.88;;;23.40;53.60;;;;;;4993082;28;20232;-58
2022/03/04 06:57:56;;;;;;;3.28;1.83;;;23.40;53.50;;;;;;4993185;28;20635;-59
2022/03/04 07:00:27;;;;;;;4.88;2.20;;;23.40;53.60;;;;;;4993016;28;20256;-56
2022/03/04 07:03:02;;;;;;;3.97;1.90;;;23.40;53.60;;;;;;4992367;28;20751;-59
2022/03/04 07:05:33;;;;;;;3.55;1.63;;;23.40;53.60;;;;;;4992773;28;20197;-58
2022/03/04 07:08:10;;;;;;;3.75;1.80;;;23.40;53.60;;;;;;4992610;28;20274;-60
2022/03/04 07:10:44;;;;;;;4.50;2.03;;;23.40;53.60;;;;;;4992726;28;20204;-60
2022/03/04 07:13:15;;;;;;;4.25;1.88;;;23.40;53.60;;;;;;4992251;28;20300;-59
2022/03/04 07:15:46;;;;;;;4.18;2.20;;;23.30;53.70;;;;;;4992569;28;20233;-58
2022/03/04 07:18:17;;;;;;;4.60;1.95;;;23.30;53.60;;;;;;4992786;28;20205;-59
2022/03/04 07:20:47;;;;;;;4.60;1.83;;;23.30;53.70;;;;;;4992514;28;20201;-60
2022/03/04 07:23:20;;;;;;;2.75;1.63;;;23.30;53.70;;;;;;4992133;28;20609;-59
2022/03/04 07:25:50;;;;;;;3.75;1.85;;;23.30;53.70;;;;;;4992668;28;20197;-57
2022/03/04 07:28:21;;;;;;;4.22;1.95;;;23.30;53.70;;;;;;4992873;28;20194;-60
2022/03/04 07:30:52;;;;;;;2.72;1.73;;;23.30;53.70;;;;;;4991923;28;20197;-58
2022/03/04 07:33:23;;;;;;;5.00;2.17;;;23.30;53.70;;;;;;4992252;28;20280;-60
2022/03/04 07:35:53;;;;;;;2.78;1.80;;;23.20;53.60;;;;;;4991701;28;20221;-60
2022/03/04 07:38:26;;;;;;;3.53;1.77;;;23.20;53.60;;;;;;4991204;28;20248;-59
2022/03/04 07:40:58;;;;;;;5.43;2.15;;;23.20;53.70;;;;;;4990879;28;20716;-60
2022/03/04 07:43:28;;;;;;;4.40;2.00;;;23.20;53.70;;;;;;4992383;28;20237;-60
2022/03/04 07:45:59;;;;;;;2.22;1.67;;;23.20;53.70;;;;;;4989028;28;20200;-60
2022/03/04 07:48:29;;;;;;;3.33;1.80;;;23.20;53.70;;;;;;4991564;28;20267;-60
2022/03/04 07:51:00;;;;;;;4.13;1.83;;;23.10;53.70;;;;;;4991688;28;20205;-60
2022/03/04 07:53:33;;;;;;;2.30;1.58;;;23.20;53.80;;;;;;4991475;28;20213;-59
2022/03/04 07:56:03;;;;;;;3.42;1.88;;;23.10;53.70;;;;;;4988655;28;20280;-59
2022/03/04 07:58:34;;;;;;;2.75;1.60;;;23.10;53.80;;;;;;4991356;28;20197;-58
2022/03/04 08:01:04;;;;;;;3.58;1.90;;;23.10;53.80;;;;;;4991809;28;20615;-62
2022/03/04 08:03:35;;;;;;;4.15;2.08;;;23.00;53.80;;;;;;4991344;28;20714;-57
2022/03/04 08:06:06;;;;;;;3.60;1.48;;;23.00;53.80;;;;;;4991898;28;20198;-58
2022/03/04 08:08:38;;;;;;;4.75;2.30;;;23.00;53.90;;;;;;4991683;28;20860;-58
2022/03/04 08:11:09;;;;;;;4.38;1.80;;;23.00;54.10;;;;;;4991800;28;20256;-56
2022/03/04 08:13:40;;;;;;;3.00;1.73;;;23.00;54.20;;;;;;4991713;28;20276;-57
2022/03/04 08:16:10;;;;;;;6.72;2.08;;;23.00;54.20;;;;;;4987118;28;20221;-58
2022/03/04 08:18:41;;;;;;;5.50;2.30;;;23.00;54.30;;;;;;4989764;28;20676;-52
2022/03/04 08:21:12;;;;;;;6.00;2.03;;;23.00;54.40;;;;;;4990293;28;20642;-53
2022/03/04 08:23:44;;;;;;;3.95;1.90;;;23.00;54.60;;;;;;4990327;28;20296;-59
2022/03/04 08:26:15;;;;;;;4.15;1.95;;;23.00;54.70;;;;;;4986463;28;20248;-58
2022/03/04 08:28:45;;;;;;;2.78;1.65;;;23.00;54.60;;;;;;4985945;28;20264;-58
2022/03/04 08:31:16;;;;;;;6.68;2.10;;;22.90;54.60;;;;;;4987202;28;20272;-59
2022/03/04 08:33:48;;;;;;;3.70;1.90;;;22.90;55.10;;;;;;4987162;28;20267;-58
2022/03/04 08:36:18;;;;;;;4.70;2.00;;;22.90;54.60;;;;;;4986230;28;20224;-58
2022/03/04 08:38:51;;;;;;;3.88;2.20;;;22.90;54.50;;;;;;4969134;23;20230;-60
2022/03/04 08:41:22;;;;;;;5.10;2.30;;;22.90;54.60;;;;;;4947921;28;20203;-60
2022/03/04 08:43:53;;;;;;;4.10;2.10;;;22.90;54.60;;;;;;4929139;29;20227;-59
2022/03/04 08:46:23;;;;;;;3.97;2.05;;;22.90;55.20;;;;;;4928071;29;20203;-60
2022/03/04 08:48:54;;;;;;;3.60;2.03;;;22.90;54.60;;;;;;4929029;29;20192;-60
2022/03/04 08:51:26;;;;;;;3.15;1.85;;;22.80;54.60;;;;;;4928349;29;20206;-60
2022/03/04 08:53:59;;;;;;;6.07;2.17;;;22.80;54.60;;;;;;4928372;29;20252;-60
2022/03/04 08:56:30;;;;;;;3.10;2.20;;;22.80;54.60;;;;;;4928463;29;20246;-60
2022/03/04 08:59:00;;;;;;;4.63;2.08;;;22.80;54.50;;;;;;4928913;29;20206;-60
2022/03/04 09:01:31;;;;;;;3.25;1.83;;;22.80;54.50;;;;;;4929496;29;20207;-61
2022/03/04 09:04:02;;;;;;;4.03;1.92;;;22.80;54.50;;;;;;4929040;29;20199;-61
2022/03/04 09:06:32;;;;;;;3.97;1.77;;;22.70;54.40;;;;;;4929477;29;20200;-60
2022/03/04 09:09:05;;;;;;;4.05;1.83;;;22.70;54.40;;;;;;4927394;29;20203;-60
2022/03/04 09:11:35;;;;;;;3.92;2.28;;;22.70;54.40;;;;;;4929150;29;20255;-60
2022/03/04 09:14:06;;;;;;;3.08;1.95;;;22.70;54.30;;;;;;4928150;29;20210;-60
2022/03/04 09:16:37;;;;;;;3.10;1.77;;;22.70;54.30;;;;;;4928143;29;20275;-60
2022/03/04 09:19:07;;;;;;;3.50;1.60;;;22.60;54.30;;;;;;4928939;29;20207;-60
2022/03/04 09:21:38;;;;;;;3.55;1.90;;;22.60;54.30;;;;;;4928618;29;20203;-60
2022/03/04 09:24:13;;;;;;;3.33;2.03;;;22.60;54.20;;;;;;4929153;29;20200;-59
2022/03/04 09:26:44;;;;;;;4.00;2.10;;;22.60;54.20;;;;;;4928166;29;20203;-61
2022/03/04 09:29:15;;;;;;;4.07;1.95;;;22.60;54.20;;;;;;4929183;29;20203;-61
2022/03/04 09:31:45;;;;;;;3.20;1.65;;;22.50;54.20;;;;;;4927858;29;20231;-61
2022/03/04 09:34:16;;;;;;;4.65;2.10;;;22.50;54.10;;;;;;4928453;29;20199;-61
2022/03/04 09:36:47;;;;;;;3.65;2.00;;;22.50;54.20;;;;;;4927923;29;20644;-60
2022/03/04 09:39:21;;;;;;;3.42;1.80;;;22.50;54.20;;;;;;4926161;29;20207;-60
2022/03/04 09:41:52;;;;;;;3.42;1.83;;;22.50;54.20;;;;;;4958565;23;20696;-55
2022/03/04 09:44:23;;;;;;;4.82;1.90;;;22.40;54.20;;;;;;4967570;28;20190;-52
2022/03/04 09:46:56;;;;;;;5.15;1.80;;;22.40;54.20;;;;;;4967013;28;20756;-52
2022/03/04 09:49:30;;;;;;;4.13;2.10;;;22.40;54.20;;;;;;4969746;28;20285;-52
2022/03/04 09:52:00;;;;;;;3.10;1.90;;;22.40;54.20;;;;;;4970263;28;20272;-51
2022/03/04 09:54:34;;;;;;;3.40;1.77;;;22.40;54.20;;;;;;4970802;28;20206;-51
2022/03/04 09:57:05;;;;;;;2.85;1.70;;;22.40;54.20;;;;;;4970251;28;20288;-54
2022/03/04 09:59:35;;;;;;;2.72;1.77;;;22.40;54.20;;;;;;4970885;28;20260;-51
2022/03/04 10:02:07;;;;;;;3.53;1.98;;;22.30;54.20;;;;;;4969457;28;20285;-53
2022/03/04 10:04:38;;;;;;;2.58;1.85;;;22.30;54.20;;;;;;4969834;28;20221;-51
2022/03/04 10:07:15;;;;;;;4.72;2.40;;;22.30;54.20;;;;;;4969865;28;20606;-52
2022/03/04 10:09:49;;;;;;;2.65;1.90;;;22.30;54.20;;;;;;4970444;28;20202;-52
2022/03/04 10:12:22;;;;;;;2.53;1.70;;;22.30;54.20;;;;;;4970454;28;20218;-51
2022/03/04 10:15:03;;;;;;;3.05;2.03;;;22.30;54.20;;;;;;4970727;28;20225;-52
2022/03/04 10:17:35;;;;;;;2.97;1.95;;;22.20;54.20;;;;;;4957065;28;20701;-56
2022/03/04 10:20:08;;;;;;;5.43;1.95;;;22.20;54.20;;;;;;4973639;28;20204;-55
2022/03/04 10:22:46;;;;;;;3.45;1.80;;;22.20;54.20;;;;;;4973881;28;20758;-55
2022/03/04 10:25:26;;;;;;;3.45;2.03;;;22.20;54.20;;;;;;4974106;28;20202;-56
2022/03/04 10:28:09;;;;;;;3.25;1.88;;;22.20;54.20;;;;;;4973576;28;20284;-55
2022/03/04 10:30:43;;;;;;;2.85;1.70;;;22.10;54.20;;;;;;4973451;28;20293;-57
2022/03/04 10:33:16;;;;;;;2.30;1.77;;;22.10;54.30;;;;;;4974111;28;20708;-58
2022/03/04 10:35:50;;;;;;;3.08;1.70;;;22.10;54.20;;;;;;4973978;28;20754;-57
2022/03/04 10:38:27;;;;;;;2.67;1.58;;;22.10;54.20;;;;;;4974139;28;20198;-57
2022/03/04 10:41:00;;;;;;;2.53;1.88;;;22.10;54.30;;;;;;4980256;23;20289;-46
2022/03/04 10:43:35;;;;;;;2.63;1.70;;;22.10;54.20;;;;;;4954045;28;20223;-47
2022/03/04 10:46:07;;;;;;;3.08;1.80;;;22.00;54.20;;;;;;4957736;28;20230;-47
2022/03/04 10:48:39;;;;;;;2.13;1.67;;;22.00;54.20;;;;;;4962334;28;20206;-46
2022/03/04 10:51:10;;;;;;;3.65;2.17;;;22.00;54.20;;;;;;4954091;28;20258;-47
2022/03/04 10:53:40;;;;;;;2.10;1.70;;;22.00;54.20;;;;;;4954253;28;20687;-49
2022/03/04 10:56:13;;;;;;;2.60;1.70;;;22.00;54.20;;;;;;4954482;28;20265;-46
2022/03/04 10:58:44;;;;;;;2.90;2.08;;;21.90;54.20;;;;;;4953729;28;20195;-48
2022/03/04 11:01:20;;;;;;;3.05;2.00;;;21.90;54.20;;;;;;4958637;28;20195;-47
2022/03/04 11:03:52;;;;;;;2.88;1.90;;;21.90;54.20;;;;;;4973588;28;20232;-46
2022/03/04 11:06:22;;;;;;;3.28;1.75;;;21.90;54.20;;;;;;4973365;28;20206;-47
2022/03/04 11:08:53;;;;;;;2.20;1.70;;;21.90;54.20;;;;;;4973191;28;20258;-48
2022/03/04 11:11:25;;;;;;;2.28;1.60;;;21.80;54.20;;;;;;4952694;28;20211;-46
2022/03/04 11:13:59;;;;;;;2.22;1.73;;;21.80;54.20;;;;;;4934946;29;20203;-49
2022/03/04 11:16:30;;;;;;;1.88;1.60;;;21.80;54.20;;;;;;4946580;28;20221;-49
2022/03/04 11:19:01;;;;;;;2.67;1.92;;;21.80;54.30;;;;;;4958985;28;20675;-49
2022/03/04 11:21:32;;;;;;;2.13;1.60;;;21.80;54.30;;;;;;4953720;28;20640;-48
2022/03/04 11:24:03;;;;;;;2.25;1.95;;;21.70;54.20;;;;;;4953734;28;20254;-49
2022/03/04 11:26:37;;;;;;;2.05;1.55;;;21.70;54.20;;;;;;4954156;28;20206;-49
2022/03/04 11:29:07;;;;;;;2.75;1.60;;;21.70;54.20;;;;;;4953895;28;20199;-47
2022/03/04 11:31:39;;;;;;;4.55;1.90;;;21.70;54.20;;;;;;4959874;28;20205;-48
2022/03/04 11:34:10;;;;;;;2.97;1.60;;;21.70;54.20;;;;;;4973050;28;20206;-47
2022/03/04 11:36:40;;;;;;;2.35;1.48;;;21.70;54.20;;;;;;4972872;28;20234;-48
2022/03/04 11:39:15;;;;;;;2.30;1.67;;;21.60;54.20;;;;;;4973187;28;20198;-46
2022/03/04 11:47:10;;;;;;;2.47;1.58;;;21.60;54.20;;;;;;5649258;23;20233;-58
2022/03/04 11:49:49;;;;;;;2.40;1.58;;;21.60;54.20;;;;;;4948756;28;20551;-59
2022/03/04 11:52:30;;;;;;;2.38;1.77;;;21.60;54.20;;;;;;4953616;28;20553;-57
2022/03/04 11:55:26;;;;;;;1.77;1.50;;;21.50;54.20;;;;;;4953431;28;20600;-59
2022/03/04 11:58:07;;;;;;;2.35;1.60;;;21.50;54.20;;;;;;4949424;28;20749;-58
2022/03/04 12:00:40;;;;;;;2.47;1.75;;;21.50;54.20;;;;;;4951652;28;20311;-55
2022/03/04 12:03:22;;;;;;;1.65;1.55;;;21.50;54.20;;;;;;4952533;28;20713;-59
2022/03/04 12:06:01;;;;;;;2.55;1.67;;;21.40;54.20;;;;;;4952569;28;20210;-59
2022/03/04 12:08:42;;;;;;;2.67;1.70;;;21.40;54.20;;;;;;4953290;28;20202;-59
2022/03/04 12:11:24;;;;;;;2.30;1.67;;;21.40;54.20;;;;;;4956698;28;20195;-57
2022/03/04 12:14:09;;;;;;;2.13;1.52;;;21.40;54.20;;;;;;4963760;28;20230;-59
2022/03/04 12:16:51;;;;;;;2.45;1.70;;;21.40;54.20;;;;;;4958600;28;20246;-59
2022/03/04 12:19:40;;;;;;;1.80;1.45;;;21.30;54.20;;;;;;4959577;28;20249;-59
2022/03/04 12:22:14;;;;;;;2.05;1.77;;;21.30;54.20;;;;;;4949621;29;20302;-59
2022/03/04 12:24:56;;;;;;;2.55;1.63;;;21.30;54.20;;;;;;4960294;28;20249;-60
2022/03/04 12:27:41;;;;;;;2.92;1.67;;;21.30;54.30;;;;;;4962366;28;20195;-57
2022/03/04 12:30:22;;;;;;;1.88;1.60;;;21.30;54.30;;;;;;4956683;28;20195;-57
2022/03/04 12:32:54;;;;;;;2.30;1.65;;;21.20;54.20;;;;;;4954101;28;20944;-59
2022/03/04 12:35:27;;;;;;;2.05;1.67;;;21.30;54.30;;;;;;4959490;28;20199;-56
2022/03/04 12:37:57;;;;;;;2.80;1.80;;;21.20;54.30;;;;;;4962055;28;20218;-58
2022/03/04 12:40:28;;;;;;;2.05;1.60;;;21.20;54.30;;;;;;4960177;28;20193;-60
2022/03/04 12:42:59;;;;;;;2.08;1.45;;;21.20;54.30;;;;;;4961375;28;20249;-60
2022/03/04 12:45:31;;;;;;;2.28;1.90;;;21.20;54.40;;;;;;4961049;28;20221;-61
2022/03/04 12:48:01;;;;;;;1.85;1.58;;;21.20;54.40;;;;;;4957606;28;20202;-62
2022/03/04 12:50:35;;;;;;;2.83;1.60;;;21.10;54.30;;;;;;4960550;28;20190;-61
2022/03/04 12:53:23;;;;;;;2.47;1.70;;;21.10;54.30;;;;;;4951983;28;20223;-59
2022/03/04 12:55:53;;;;;;;2.60;1.60;;;21.10;54.30;;;;;;4951592;28;20626;-61
2022/03/04 12:58:37;;;;;;;2.45;1.75;;;21.10;54.30;;;;;;4951494;28;20226;-61
2022/03/04 13:01:09;;;;;;;1.77;1.42;;;21.10;54.40;;;;;;4951730;28;20195;-60
2022/03/04 13:03:39;;;;;;;2.55;1.73;;;21.10;54.40;;;;;;4951547;28;20219;-61
2022/03/04 13:06:12;;;;;;;2.15;1.77;;;21.00;54.30;;;;;;4951685;28;20199;-60
2022/03/04 13:08:50;;;;;;;2.78;1.60;;;21.00;54.40;;;;;;4951902;28;20194;-61
2022/03/04 13:11:21;;;;;;;2.63;1.60;;;21.00;54.40;;;;;;4951661;28;20199;-59
2022/03/04 13:13:54;;;;;;;1.92;1.60;;;21.00;54.40;;;;;;4951610;28;20198;-60
2022/03/04 13:16:30;;;;;;;3.40;1.60;;;21.00;54.40;;;;;;4951783;28;20206;-62
2022/03/04 13:19:02;;;;;;;3.75;1.63;;;21.00;54.40;;;;;;4951349;28;20273;-62
2022/03/04 13:21:43;;;;;;;2.05;1.42;;;21.00;54.40;;;;;;4950905;28;20677;-60
2022/03/04 13:24:22;;;;;;;3.55;1.63;;;21.00;54.40;;;;;;4951399;28;20198;-61
2022/03/04 13:27:00;;;;;;;1.98;1.50;;;20.90;54.40;;;;;;4951653;28;20670;-62
2022/03/04 13:29:35;;;;;;;2.65;1.63;;;20.90;54.40;;;;;;4951846;28;20202;-58
2022/03/04 13:32:13;;;;;;;1.92;1.52;;;20.90;54.40;;;;;;4951169;28;20761;-62
2022/03/04 13:34:48;;;;;;;3.20;1.70;;;20.90;54.50;;;;;;4951559;28;20203;-60
2022/03/04 13:37:21;;;;;;;2.10;1.63;;;20.90;54.50;;;;;;4951110;28;20226;-58
2022/03/04 13:40:01;;;;;;;1.75;1.40;;;20.90;54.50;;;;;;4951108;28;20696;-61
2022/03/04 13:42:33;;;;;;;1.83;1.20;;;20.90;54.50;;;;;;4951363;28;20277;-61
2022/03/04 13:45:06;;;;;;;2.47;1.80;;;20.80;54.50;;;;;;4977040;23;20796;-51
2022/03/04 13:47:42;;;;;;;1.58;1.30;;;20.80;54.40;;;;;;4968675;28;20198;-55
2022/03/04 13:50:28;;;;;;;2.53;1.48;;;20.80;54.50;;;;;;4951145;28;20588;-53
2022/03/04 13:53:02;;;;;;;2.75;1.80;;;20.80;54.50;;;;;;4950466;28;20274;-54
2022/03/04 13:55:35;;;;;;;1.83;1.40;;;20.70;54.50;;;;;;4951525;28;20210;-54
2022/03/04 13:58:18;;;;;;;2.92;1.60;;;20.70;54.40;;;;;;4951695;28;20230;-55
2022/03/04 14:00:50;;;;;;;1.73;1.23;;;20.70;54.50;;;;;;4951259;28;20234;-54
2022/03/04 14:03:24;;;;;;;2.13;1.52;;;20.70;54.50;;;;;;4950668;28;20289;-53
2022/03/04 14:06:02;;;;;;;2.45;1.60;;;20.70;54.50;;;;;;4950472;28;20304;-54
2022/03/04 14:08:34;;;;;;;2.70;1.70;;;20.70;54.50;;;;;;4950655;28;20194;-54
2022/03/04 14:11:07;;;;;;;3.10;1.60;;;20.70;54.50;;;;;;4952564;28;20249;-55
2022/03/04 14:13:37;;;;;;;1.83;1.50;;;20.70;54.50;;;;;;4950461;28;20223;-55
2022/03/04 14:16:09;;;;;;;1.95;1.42;;;20.70;54.50;;;;;;4950734;28;20199;-55
2022/03/04 14:18:40;;;;;;;2.88;1.65;;;20.60;54.50;;;;;;4950738;28;20273;-54
2022/03/04 14:21:11;;;;;;;1.75;1.48;;;20.60;54.50;;;;;;4951115;28;20199;-55
2022/03/04 14:23:46;;;;;;;1.85;1.50;;;20.60;54.50;;;;;;4951588;28;20219;-55
2022/03/04 14:26:16;;;;;;;2.65;1.70;;;20.60;54.50;;;;;;4951015;28;20199;-53
2022/03/04 14:29:09;;;;;;;2.45;1.40;;;20.60;54.50;;;;;;4951353;28;20261;-56
2022/03/04 14:31:38;;;;;;;2.75;1.50;;;20.60;54.50;;;;;;4950762;28;20214;-55
2022/03/04 14:34:08;;;;;;;1.80;1.55;;;20.60;54.50;;;;;;4952112;28;20254;-55
2022/03/04 14:36:39;;;;;;;1.88;1.40;;;20.60;54.50;;;;;;4954453;28;20269;-55
2022/03/04 14:39:11;;;;;;;1.70;1.42;;;20.60;54.50;;;;;;4954750;28;20202;-54
2022/03/04 14:41:42;;;;;;;2.40;1.45;;;20.60;54.60;;;;;;4953947;28;20209;-55